createdAt,value
2016-05-12T00:00:10.398Z,0
2016-05-12T00:01:10.448Z,0
2016-05-12T00:02:10.403Z,0
2016-05-12T00:03:10.563Z,0
2016-05-12T00:04:10.441Z,0
2016-05-12T00:05:10.427Z,0
2016-05-12T00:06:10.571Z,0
2016-05-12T00:07:10.432Z,0
2016-05-12T00:08:10.435Z,0
2016-05-12T00:09:10.594Z,0
2016-05-12T00:10:10.596Z,0
2016-05-12T00:11:10.428Z,0
2016-05-12T00:12:10.618Z,0
2016-05-12T00:13:10.449Z,0
2016-05-12T00:14:10.608Z,0
2016-05-12T00:15:10.626Z,0
2016-05-12T00:16:10.785Z,0
2016-05-12T00:17:10.615Z,0
2016-05-12T00:18:10.696Z,0
2016-05-12T00:19:10.606Z,0
2016-05-12T00:20:10.624Z,0
2016-05-12T00:21:10.470Z,0
2016-05-12T00:22:10.473Z,0
2016-05-12T00:23:10.491Z,0
2016-05-12T00:24:10.651Z,0
2016-05-12T00:25:10.638Z,0
2016-05-12T00:26:10.640Z,0
2016-05-12T00:27:10.658Z,0
2016-05-12T00:28:10.645Z,0
2016-05-12T00:29:10.694Z,0
2016-05-12T00:30:10.525Z,0
2016-05-12T00:31:10.809Z,0
2016-05-12T00:32:10.656Z,0
2016-05-12T00:33:10.644Z,0
2016-05-12T00:34:10.692Z,0
2016-05-12T00:35:10.680Z,0
2016-05-12T00:36:10.683Z,0
2016-05-12T00:37:10.544Z,0
2016-05-12T00:38:10.688Z,0
2016-05-12T00:39:10.691Z,0
2016-05-12T00:40:10.725Z,0
2016-05-12T00:41:10.524Z,0
2016-05-12T00:42:10.730Z,0
2016-05-12T00:43:10.701Z,0
2016-05-12T00:44:10.719Z,0
2016-05-12T00:45:10.706Z,0
2016-05-12T00:46:10.724Z,0
2016-05-12T00:47:10.713Z,0
2016-05-12T00:48:10.574Z,0
2016-05-12T00:49:10.718Z,0
2016-05-12T00:50:10.720Z,0
2016-05-12T00:51:10.707Z,0
2016-05-12T00:52:10.569Z,0
2016-05-12T00:53:10.743Z,0
2016-05-12T00:54:10.590Z,0
2016-05-12T00:55:10.437Z,0
2016-05-12T00:56:10.595Z,0
2016-05-12T00:57:10.739Z,0
2016-05-12T00:58:10.742Z,0
2016-05-12T00:59:10.604Z,0
2016-05-12T01:00:10.731Z,0
2016-05-12T01:01:10.655Z,0
2016-05-12T01:02:10.753Z,0
2016-05-12T01:03:10.740Z,0
2016-05-12T01:04:10.633Z,0
2016-05-12T01:05:10.604Z,0
2016-05-12T01:06:10.622Z,0
2016-05-12T01:07:10.610Z,0
2016-05-12T01:08:10.784Z,0
2016-05-12T01:09:10.616Z,0
2016-05-12T01:10:10.618Z,0
2016-05-12T01:11:10.636Z,0
2016-05-12T01:12:10.779Z,0
2016-05-12T01:13:10.797Z,0
2016-05-12T01:14:10.769Z,0
2016-05-12T01:15:10.819Z,0
2016-05-12T01:16:11.181Z,0
2016-05-12T01:17:10.652Z,0
2016-05-12T01:18:10.670Z,0
2016-05-12T01:19:10.642Z,0
2016-05-12T01:20:10.676Z,0
2016-05-12T01:21:10.803Z,0
2016-05-12T01:22:10.807Z,0
2016-05-12T01:23:10.809Z,0
2016-05-12T01:24:10.656Z,0
2016-05-12T01:25:10.830Z,0
2016-05-12T01:26:10.832Z,0
2016-05-12T01:27:10.851Z,0
2016-05-12T01:28:10.822Z,0
2016-05-12T01:29:10.528Z,0
2016-05-12T01:30:10.828Z,0
2016-05-12T01:31:10.846Z,0
2016-05-12T01:32:10.708Z,0
2016-05-12T01:33:10.680Z,0
2016-05-12T01:34:10.838Z,0
2016-05-12T01:35:10.841Z,0
2016-05-12T01:36:10.688Z,0
2016-05-12T01:37:10.706Z,0
2016-05-12T01:38:10.865Z,0
2016-05-12T01:39:10.727Z,0
2016-05-12T01:40:10.870Z,0
2016-05-12T01:41:10.904Z,0
2016-05-12T01:42:10.908Z,0
2016-05-12T01:43:10.878Z,0
2016-05-12T01:44:10.724Z,0
2016-05-12T01:45:10.587Z,0
2016-05-12T01:46:11.386Z,0
2016-05-12T01:47:10.889Z,0
2016-05-12T01:48:10.720Z,0
2016-05-12T01:49:10.894Z,0
2016-05-12T01:50:10.726Z,0
2016-05-12T01:51:10.728Z,0
2016-05-12T01:52:10.902Z,0
2016-05-12T01:53:10.921Z,0
2016-05-12T01:54:10.923Z,0
2016-05-12T01:55:10.910Z,0
2016-05-12T01:56:10.913Z,0
2016-05-12T01:57:10.916Z,0
2016-05-12T01:58:10.903Z,0
2016-05-12T01:59:10.906Z,0
2016-05-12T02:00:10.909Z,0
2016-05-12T02:01:10.911Z,0
2016-05-12T02:02:10.913Z,0
2016-05-12T02:03:10.916Z,0
2016-05-12T02:04:10.935Z,0
2016-05-12T02:05:10.922Z,0
2016-05-12T02:06:10.627Z,0
2016-05-12T02:07:10.786Z,0
2016-05-12T02:08:10.992Z,0
2016-05-12T02:09:10.933Z,0
2016-05-12T02:10:10.935Z,0
2016-05-12T02:11:10.938Z,0
2016-05-12T02:12:10.800Z,0
2016-05-12T02:13:10.958Z,0
2016-05-12T02:14:10.993Z,0
2016-05-12T02:15:10.964Z,0
2016-05-12T02:16:11.326Z,0
2016-05-12T02:17:10.955Z,0
2016-05-12T02:18:10.972Z,0
2016-05-12T02:19:10.818Z,0
2016-05-12T02:20:10.807Z,0
2016-05-12T02:21:10.965Z,0
2016-05-12T02:22:10.952Z,0
2016-05-12T02:23:10.985Z,0
2016-05-12T02:24:10.988Z,0
2016-05-12T02:25:10.866Z,0
2016-05-12T02:26:10.994Z,0
2016-05-12T02:27:10.825Z,0
2016-05-12T02:28:10.999Z,0
2016-05-12T02:29:10.986Z,0
2016-05-12T02:30:10.817Z,0
2016-05-12T02:31:11.086Z,0
2016-05-12T02:32:11.010Z,0
2016-05-12T02:33:10.982Z,0
2016-05-12T02:34:11.015Z,0
2016-05-12T02:35:11.017Z,0
2016-05-12T02:36:10.881Z,0
2016-05-12T02:37:11.008Z,0
2016-05-12T02:38:11.025Z,0
2016-05-12T02:39:11.014Z,0
2016-05-12T02:40:11.031Z,0
2016-05-12T02:41:11.034Z,0
2016-05-12T02:42:11.037Z,0
2016-05-12T02:43:11.164Z,0
2016-05-12T02:44:10.871Z,0
2016-05-12T02:45:11.013Z,0
2016-05-12T02:46:11.251Z,0
2016-05-12T02:47:11.050Z,0
2016-05-12T02:48:11.022Z,0
2016-05-12T02:49:10.759Z,0
2016-05-12T02:50:11.043Z,0
2016-05-12T02:51:11.046Z,0
2016-05-12T02:52:11.033Z,0
2016-05-12T02:53:10.895Z,0
2016-05-12T02:54:11.054Z,0
2016-05-12T02:55:10.900Z,0
2016-05-12T02:56:11.074Z,0
2016-05-12T02:57:10.905Z,0
2016-05-12T02:58:11.064Z,0
2016-05-12T02:59:11.068Z,0
2016-05-12T03:00:10.914Z,0
2016-05-12T03:01:11.073Z,0
2016-05-12T03:02:10.903Z,0
2016-05-12T03:03:11.078Z,0
2016-05-12T03:04:11.080Z,0
2016-05-12T03:05:11.084Z,0
2016-05-12T03:06:11.086Z,0
2016-05-12T03:07:11.073Z,0
2016-05-12T03:08:11.091Z,0
2016-05-12T03:09:10.922Z,0
2016-05-12T03:10:11.112Z,0
2016-05-12T03:11:10.928Z,4
2016-05-12T03:12:11.086Z,4
2016-05-12T03:13:11.105Z,4
2016-05-12T03:14:11.092Z,4
2016-05-12T03:15:11.094Z,0
2016-05-12T03:16:10.941Z,0
2016-05-12T03:17:11.099Z,4
2016-05-12T03:18:11.088Z,4
2016-05-12T03:19:11.105Z,4
2016-05-12T03:20:10.968Z,4
2016-05-12T03:21:11.127Z,4
2016-05-12T03:22:11.129Z,8
2016-05-12T03:23:11.131Z,8
2016-05-12T03:24:10.962Z,8
2016-05-12T03:25:10.981Z,8
2016-05-12T03:26:11.124Z,12
2016-05-12T03:27:11.126Z,12
2016-05-12T03:28:11.145Z,12
2016-05-12T03:29:11.007Z,12
2016-05-12T03:30:11.165Z,16
2016-05-12T03:31:11.168Z,16
2016-05-12T03:32:11.140Z,24
2016-05-12T03:33:11.143Z,24
2016-05-12T03:34:10.973Z,28
2016-05-12T03:35:11.148Z,32
2016-05-12T03:36:11.135Z,32
2016-05-12T03:37:11.138Z,40
2016-05-12T03:38:11.141Z,40
2016-05-12T03:39:11.019Z,44
2016-05-12T03:40:11.178Z,48
2016-05-12T03:41:10.867Z,52
2016-05-12T03:42:11.182Z,56
2016-05-12T03:43:11.154Z,56
2016-05-12T03:44:11.203Z,60
2016-05-12T03:45:11.035Z,56
2016-05-12T03:46:11.052Z,60
2016-05-12T03:47:11.211Z,64
2016-05-12T03:48:11.027Z,68
2016-05-12T03:49:11.202Z,72
2016-05-12T03:50:11.032Z,80
2016-05-12T03:51:10.863Z,80
2016-05-12T03:52:11.179Z,88
2016-05-12T03:53:11.182Z,92
2016-05-12T03:54:11.059Z,100
2016-05-12T03:55:11.046Z,104
2016-05-12T03:56:11.064Z,116
2016-05-12T03:57:11.207Z,124
2016-05-12T03:58:11.241Z,128
2016-05-12T03:59:11.213Z,136
2016-05-12T04:00:11.076Z,140
2016-05-12T04:01:11.124Z,152
2016-05-12T04:02:10.924Z,164
2016-05-12T04:03:11.208Z,172
2016-05-12T04:04:11.242Z,184
2016-05-12T04:05:11.245Z,196
2016-05-12T04:06:11.248Z,208
2016-05-12T04:07:11.250Z,224
2016-05-12T04:08:11.253Z,240
2016-05-12T04:09:11.067Z,256
2016-05-12T04:10:11.227Z,272
2016-05-12T04:11:11.230Z,292
2016-05-12T04:12:11.092Z,308
2016-05-12T04:13:11.250Z,328
2016-05-12T04:14:11.269Z,348
2016-05-12T04:15:11.240Z,368
2016-05-12T04:16:11.102Z,384
2016-05-12T04:17:11.105Z,388
2016-05-12T04:18:11.232Z,392
2016-05-12T04:19:11.252Z,396
2016-05-12T04:20:11.113Z,400
2016-05-12T04:21:11.241Z,408
2016-05-12T04:22:11.134Z,428
2016-05-12T04:23:11.262Z,444
2016-05-12T04:24:11.248Z,464
2016-05-12T04:25:11.142Z,480
2016-05-12T04:26:11.129Z,496
2016-05-12T04:27:11.273Z,508
2016-05-12T04:28:11.259Z,524
2016-05-12T04:29:11.121Z,540
2016-05-12T04:30:11.281Z,564
2016-05-12T04:31:11.127Z,584
2016-05-12T04:32:11.129Z,600
2016-05-12T04:33:11.320Z,620
2016-05-12T04:34:11.292Z,644
2016-05-12T04:35:11.340Z,668
2016-05-12T04:36:11.328Z,704
2016-05-12T04:37:11.158Z,744
2016-05-12T04:38:11.334Z,784
2016-05-12T04:39:11.337Z,816
2016-05-12T04:40:11.167Z,844
2016-05-12T04:41:11.325Z,872
2016-05-12T04:42:11.156Z,908
2016-05-12T04:43:11.330Z,956
2016-05-12T04:44:11.162Z,1020
2016-05-12T04:45:11.368Z,1096
2016-05-12T04:46:11.339Z,1172
2016-05-12T04:47:11.202Z,1228
2016-05-12T04:48:11.344Z,1268
2016-05-12T04:49:11.347Z,1304
2016-05-12T04:50:11.349Z,1332
2016-05-12T04:51:11.353Z,1372
2016-05-12T04:52:11.355Z,1416
2016-05-12T04:53:11.343Z,1444
2016-05-12T04:54:11.345Z,1452
2016-05-12T04:55:11.363Z,1452
2016-05-12T04:56:11.210Z,1444
2016-05-12T04:57:11.385Z,1424
2016-05-12T04:58:11.043Z,1364
2016-05-12T04:59:11.405Z,1288
2016-05-12T05:00:11.362Z,1208
2016-05-12T05:01:11.301Z,1140
2016-05-12T05:02:11.226Z,1088
2016-05-12T05:03:11.400Z,1052
2016-05-12T05:04:11.248Z,1024
2016-05-12T05:05:11.406Z,1012
2016-05-12T05:06:11.081Z,1028
2016-05-12T05:07:11.396Z,1076
2016-05-12T05:08:11.242Z,1140
2016-05-12T05:09:11.417Z,1200
2016-05-12T05:10:11.403Z,1236
2016-05-12T05:11:11.437Z,1244
2016-05-12T05:12:11.440Z,1216
2016-05-12T05:13:11.397Z,1180
2016-05-12T05:14:11.086Z,1152
2016-05-12T05:15:11.433Z,1148
2016-05-12T05:16:11.279Z,1176
2016-05-12T05:17:11.438Z,1220
2016-05-12T05:18:11.425Z,1264
2016-05-12T05:19:11.428Z,1300
2016-05-12T05:20:11.446Z,1316
2016-05-12T05:21:11.293Z,1320
2016-05-12T05:22:11.311Z,1320
2016-05-12T05:23:11.282Z,1320
2016-05-12T05:24:11.458Z,1332
2016-05-12T05:25:11.319Z,1352
2016-05-12T05:26:11.447Z,1388
2016-05-12T05:27:11.449Z,1424
2016-05-12T05:28:11.452Z,1496
2016-05-12T05:29:11.314Z,1580
2016-05-12T05:30:11.473Z,1656
2016-05-12T05:31:11.835Z,1728
2016-05-12T05:32:11.479Z,1788
2016-05-12T05:33:11.481Z,1872
2016-05-12T05:34:11.499Z,1976
2016-05-12T05:35:11.471Z,2088
2016-05-12T05:36:11.473Z,2208
2016-05-12T05:37:11.492Z,2320
2016-05-12T05:38:11.494Z,2428
2016-05-12T05:39:11.326Z,2528
2016-05-12T05:40:11.345Z,2624
2016-05-12T05:41:11.518Z,2696
2016-05-12T05:42:11.521Z,2764
2016-05-12T05:43:11.523Z,2848
2016-05-12T05:44:11.525Z,2944
2016-05-12T05:45:11.514Z,3008
2016-05-12T05:46:12.188Z,3072
2016-05-12T05:47:11.519Z,3172
2016-05-12T05:48:11.366Z,3324
2016-05-12T05:49:11.368Z,3512
2016-05-12T05:50:11.386Z,3736
2016-05-12T05:51:11.530Z,3940
2016-05-12T05:52:11.532Z,4104
2016-05-12T05:53:11.535Z,4208
2016-05-12T05:54:11.552Z,4256
2016-05-12T05:55:11.540Z,4280
2016-05-12T05:56:11.591Z,4328
2016-05-12T05:57:11.577Z,4460
2016-05-12T05:58:11.563Z,4576
2016-05-12T05:59:11.551Z,4684
2016-05-12T06:00:11.569Z,4864
2016-05-12T06:01:11.447Z,5024
2016-05-12T06:02:11.606Z,5188
2016-05-12T06:03:11.452Z,5232
2016-05-12T06:04:11.580Z,5272
2016-05-12T06:05:11.443Z,5276
2016-05-12T06:06:11.585Z,5256
2016-05-12T06:07:11.448Z,5264
2016-05-12T06:08:11.465Z,5284
2016-05-12T06:09:11.625Z,5340
2016-05-12T06:10:11.455Z,5404
2016-05-12T06:11:11.599Z,5472
2016-05-12T06:12:11.492Z,5532
2016-05-12T06:13:11.620Z,5744
2016-05-12T06:14:11.466Z,6076
2016-05-12T06:15:11.641Z,5860
2016-05-12T06:16:12.112Z,5820
2016-05-12T06:17:11.350Z,5740
2016-05-12T06:18:11.477Z,5596
2016-05-12T06:19:11.683Z,5476
2016-05-12T06:20:11.702Z,5444
2016-05-12T06:21:11.688Z,5468
2016-05-12T06:22:11.550Z,5536
2016-05-12T06:23:11.678Z,5560
2016-05-12T06:24:11.680Z,5564
2016-05-12T06:25:11.699Z,5380
2016-05-12T06:26:11.686Z,5184
2016-05-12T06:27:11.721Z,5032
2016-05-12T06:28:11.707Z,4908
2016-05-12T06:29:11.272Z,4804
2016-05-12T06:30:11.557Z,4744
2016-05-12T06:31:11.731Z,4708
2016-05-12T06:32:11.718Z,4700
2016-05-12T06:33:11.736Z,4680
2016-05-12T06:34:11.427Z,4652
2016-05-12T06:35:11.585Z,4596
2016-05-12T06:36:11.744Z,4436
2016-05-12T06:37:11.748Z,4252
2016-05-12T06:38:11.734Z,4080
2016-05-12T06:39:11.768Z,3932
2016-05-12T06:40:11.443Z,3816
2016-05-12T06:41:11.618Z,3708
2016-05-12T06:42:11.761Z,3596
2016-05-12T06:43:11.779Z,3452
2016-05-12T06:44:11.781Z,3324
2016-05-12T06:45:11.784Z,3188
2016-05-12T06:46:11.787Z,3060
2016-05-12T06:47:11.789Z,2964
2016-05-12T06:48:11.808Z,2900
2016-05-12T06:49:11.794Z,2860
2016-05-12T06:50:11.840Z,2848
2016-05-12T06:51:11.886Z,2864
2016-05-12T06:52:11.634Z,2888
2016-05-12T06:53:11.837Z,2900
2016-05-12T06:54:12.054Z,2880
2016-05-12T06:55:12.072Z,2844
2016-05-12T06:56:11.935Z,2800
2016-05-12T06:57:11.968Z,2752
2016-05-12T06:58:11.986Z,2708
2016-05-12T06:59:12.129Z,2688
2016-05-12T07:00:12.168Z,2660
2016-05-12T07:01:11.833Z,2584
2016-05-12T07:02:12.153Z,2492
2016-05-12T07:03:12.162Z,2392
2016-05-12T07:04:12.184Z,2328
2016-05-12T07:05:12.033Z,2328
2016-05-12T07:06:12.632Z,2360
2016-05-12T07:07:12.043Z,2472
2016-05-12T07:08:11.907Z,2580
2016-05-12T07:09:12.052Z,2660
2016-05-12T07:10:12.228Z,2688
2016-05-12T07:11:12.247Z,2692
2016-05-12T07:12:12.093Z,2672
2016-05-12T07:13:12.237Z,2656
2016-05-12T07:14:12.257Z,2640
2016-05-12T07:15:12.072Z,2632
2016-05-12T07:16:12.403Z,2632
2016-05-12T07:17:12.266Z,2628
2016-05-12T07:18:12.112Z,2624
2016-05-12T07:19:12.272Z,2632
2016-05-12T07:20:12.259Z,2676
2016-05-12T07:21:12.277Z,2772
2016-05-12T07:22:12.280Z,2908
2016-05-12T07:23:12.126Z,3080
2016-05-12T07:24:12.286Z,3252
2016-05-12T07:25:12.289Z,3428
2016-05-12T07:26:11.994Z,3620
2016-05-12T07:27:12.293Z,3852
2016-05-12T07:28:12.297Z,4056
2016-05-12T07:29:12.299Z,4296
2016-05-12T07:30:12.161Z,4524
2016-05-12T07:31:12.320Z,4708
2016-05-12T07:32:12.307Z,4804
2016-05-12T07:33:12.185Z,4844
2016-05-12T07:34:12.328Z,4840
2016-05-12T07:35:12.174Z,4828
2016-05-12T07:36:12.349Z,4812
2016-05-12T07:37:12.180Z,4800
2016-05-12T07:38:12.198Z,4784
2016-05-12T07:39:12.373Z,4768
2016-05-12T07:40:12.188Z,4772
2016-05-12T07:41:12.363Z,4768
2016-05-12T07:42:12.209Z,4768
2016-05-12T07:43:12.212Z,4776
2016-05-12T07:44:12.057Z,4756
2016-05-12T07:45:12.374Z,4764
2016-05-12T07:46:12.438Z,4844
2016-05-12T07:47:12.379Z,4952
2016-05-12T07:48:12.381Z,5020
2016-05-12T07:49:12.400Z,5064
2016-05-12T07:50:12.371Z,5052
2016-05-12T07:51:12.389Z,4908
2016-05-12T07:52:12.409Z,4764
2016-05-12T07:53:12.411Z,4588
2016-05-12T07:54:12.414Z,4460
2016-05-12T07:55:12.447Z,4392
2016-05-12T07:56:12.434Z,4332
2016-05-12T07:57:12.453Z,4220
2016-05-12T07:58:12.299Z,4044
2016-05-12T07:59:12.458Z,3820
2016-05-12T08:00:12.272Z,3584
2016-05-12T08:01:12.697Z,3392
2016-05-12T08:02:12.466Z,3280
2016-05-12T08:03:12.469Z,3260
2016-05-12T08:04:12.471Z,3300
2016-05-12T08:05:12.302Z,3348
2016-05-12T08:06:12.492Z,3424
2016-05-12T08:07:12.167Z,3504
2016-05-12T08:08:12.482Z,3592
2016-05-12T08:09:12.484Z,3676
2016-05-12T08:10:12.503Z,3768
2016-05-12T08:11:12.522Z,3820
2016-05-12T08:12:12.493Z,3848
2016-05-12T08:13:12.386Z,3896
2016-05-12T08:14:12.513Z,3928
2016-05-12T08:15:12.485Z,3912
2016-05-12T08:16:12.316Z,3856
2016-05-12T08:17:12.553Z,3812
2016-05-12T08:18:12.369Z,3768
2016-05-12T08:19:12.371Z,3720
2016-05-12T08:20:12.529Z,3692
2016-05-12T08:21:12.377Z,3752
2016-05-12T08:22:12.551Z,3928
2016-05-12T08:23:12.553Z,4168
2016-05-12T08:24:12.572Z,4440
2016-05-12T08:25:12.575Z,4680
2016-05-12T08:26:12.280Z,4872
2016-05-12T08:27:12.580Z,5192
2016-05-12T08:28:12.567Z,5652
2016-05-12T08:29:12.585Z,5948
2016-05-12T08:30:12.572Z,5992
2016-05-12T08:31:12.747Z,5868
2016-05-12T08:32:12.875Z,5848
2016-05-12T08:33:12.597Z,5852
2016-05-12T08:34:12.443Z,5740
2016-05-12T08:35:12.570Z,5616
2016-05-12T08:36:12.448Z,5508
2016-05-12T08:37:12.450Z,5404
2016-05-12T08:38:12.594Z,5264
2016-05-12T08:39:12.628Z,5064
2016-05-12T08:40:12.474Z,4776
2016-05-12T08:41:12.618Z,4456
2016-05-12T08:42:12.479Z,4200
2016-05-12T08:43:12.638Z,4028
2016-05-12T08:44:12.485Z,3916
2016-05-12T08:45:12.644Z,3848
2016-05-12T08:46:12.896Z,3768
2016-05-12T08:47:12.665Z,3656
2016-05-12T08:48:12.637Z,3572
2016-05-12T08:49:12.686Z,3540
2016-05-12T08:50:12.673Z,3492
2016-05-12T08:51:12.660Z,3488
2016-05-12T08:52:12.662Z,3476
2016-05-12T08:53:12.681Z,3468
2016-05-12T08:54:15.668Z,3456
2016-05-12T08:55:12.686Z,3452
2016-05-12T08:56:12.674Z,3460
2016-05-12T08:57:12.504Z,3496
2016-05-12T08:58:12.663Z,3544
2016-05-12T08:59:12.682Z,3624
2016-05-12T09:00:12.700Z,3684
2016-05-12T09:01:12.561Z,3704
2016-05-12T09:02:12.612Z,3720
2016-05-12T09:03:12.677Z,3772
2016-05-12T09:04:12.695Z,3864
2016-05-12T09:05:12.541Z,3956
2016-05-12T09:06:12.419Z,4092
2016-05-12T09:07:12.688Z,4308
2016-05-12T09:08:15.893Z,4640
2016-05-12T09:09:12.708Z,4968
2016-05-12T09:10:12.711Z,5220
2016-05-12T09:11:12.574Z,5256
2016-05-12T09:12:12.732Z,5120
2016-05-12T09:13:15.141Z,4868
2016-05-12T09:14:12.721Z,4632
2016-05-12T09:15:12.569Z,4444
2016-05-12T09:16:12.665Z,4284
2016-05-12T09:17:12.793Z,4252
2016-05-12T09:18:13.108Z,4304
2016-05-12T09:19:12.767Z,4356
2016-05-12T09:20:12.770Z,4460
2016-05-12T09:21:12.585Z,4596
2016-05-12T09:22:12.571Z,4752
2016-05-12T09:23:12.746Z,4844
2016-05-12T09:24:12.748Z,4828
2016-05-12T09:25:12.767Z,4792
2016-05-12T09:26:14.629Z,4784
2016-05-12T09:27:12.772Z,4816
2016-05-12T09:28:12.634Z,4824
2016-05-12T09:29:12.747Z,4808
2016-05-12T09:30:12.765Z,4884
2016-05-12T09:31:14.845Z,5072
2016-05-12T09:32:12.770Z,5192
2016-05-12T09:33:12.805Z,5160
2016-05-12T09:34:12.791Z,5172
2016-05-12T09:35:12.794Z,5340
2016-05-12T09:36:13.078Z,5504
2016-05-12T09:37:12.831Z,5644
2016-05-12T09:38:12.786Z,5896
2016-05-12T09:39:12.821Z,6256
2016-05-12T09:40:12.824Z,6628
2016-05-12T09:41:13.232Z,6932
2016-05-12T09:42:12.657Z,7104
2016-05-12T09:43:12.659Z,7212
2016-05-12T09:44:12.849Z,7344
2016-05-12T09:45:12.821Z,7532
2016-05-12T09:46:12.885Z,7816
2016-05-12T09:47:12.718Z,7948
2016-05-12T09:48:12.516Z,7812
2016-05-12T09:49:12.863Z,7712
2016-05-12T09:50:12.835Z,7860
2016-05-12T09:51:12.681Z,8500
2016-05-12T09:52:12.856Z,9436
2016-05-12T09:53:12.686Z,9848
2016-05-12T09:54:12.689Z,9444
2016-05-12T09:55:12.864Z,8660
2016-05-12T09:56:12.726Z,8088
2016-05-12T09:57:12.853Z,7884
2016-05-12T09:58:12.872Z,7908
2016-05-12T09:59:12.889Z,8040
2016-05-12T10:00:12.736Z,8268
2016-05-12T10:01:12.755Z,8464
2016-05-12T10:02:13.163Z,8476
2016-05-12T10:03:12.886Z,8292
2016-05-12T10:04:12.904Z,7904
2016-05-12T10:05:13.312Z,7444
2016-05-12T10:06:12.737Z,7044
2016-05-12T10:07:12.896Z,6676
2016-05-12T10:08:12.899Z,6408
2016-05-12T10:09:12.902Z,6168
2016-05-12T10:10:12.763Z,5996
2016-05-12T10:11:12.750Z,5848
2016-05-12T10:12:12.627Z,5672
2016-05-12T10:13:12.755Z,5456
2016-05-12T10:14:12.915Z,5232
2016-05-12T10:15:12.932Z,5056
2016-05-12T10:16:13.013Z,5080
2016-05-12T10:17:12.813Z,5208
2016-05-12T10:18:12.926Z,5188
2016-05-12T10:19:12.804Z,5164
2016-05-12T10:20:12.962Z,5060
2016-05-12T10:21:12.965Z,4892
2016-05-12T10:22:12.982Z,4712
2016-05-12T10:23:12.986Z,4424
2016-05-12T10:24:12.832Z,4188
2016-05-12T10:25:12.991Z,4028
2016-05-12T10:26:13.009Z,3880
2016-05-12T10:27:12.996Z,3664
2016-05-12T10:28:13.171Z,3404
2016-05-12T10:29:12.986Z,3228
2016-05-12T10:30:12.989Z,3176
2016-05-12T10:31:12.850Z,3180
2016-05-12T10:32:13.228Z,3236
2016-05-12T10:33:13.013Z,3336
2016-05-12T10:34:13.046Z,3348
2016-05-12T10:35:12.846Z,3384
2016-05-12T10:36:13.020Z,3368
2016-05-12T10:37:12.898Z,3380
2016-05-12T10:38:13.448Z,3404
2016-05-12T10:39:13.138Z,3504
2016-05-12T10:40:13.031Z,3548
2016-05-12T10:41:13.033Z,3568
2016-05-12T10:42:12.880Z,3616
2016-05-12T10:43:12.899Z,3592
2016-05-12T10:44:13.027Z,3540
2016-05-12T10:45:13.044Z,3556
2016-05-12T10:46:12.891Z,3644
2016-05-12T10:47:13.066Z,3724
2016-05-12T10:48:13.100Z,3796
2016-05-12T10:49:13.071Z,3824
2016-05-12T10:50:12.948Z,3772
2016-05-12T10:51:13.077Z,3648
2016-05-12T10:52:13.096Z,3592
2016-05-12T10:53:13.066Z,3568
2016-05-12T10:54:13.069Z,3532
2016-05-12T10:55:12.946Z,3536
2016-05-12T10:56:12.934Z,3632
2016-05-12T10:57:12.968Z,3796
2016-05-12T10:58:13.096Z,3968
2016-05-12T10:59:13.098Z,4152
2016-05-12T11:00:13.100Z,4232
2016-05-12T11:01:13.087Z,4288
2016-05-12T11:02:13.341Z,4288
2016-05-12T11:03:12.936Z,4132
2016-05-12T11:04:13.111Z,3872
2016-05-12T11:05:13.098Z,3624
2016-05-12T11:06:12.945Z,3452
2016-05-12T11:07:13.104Z,3412
2016-05-12T11:08:13.107Z,3396
2016-05-12T11:09:12.952Z,3448
2016-05-12T11:10:13.112Z,3484
2016-05-12T11:11:13.115Z,3452
2016-05-12T11:12:13.149Z,3364
2016-05-12T11:13:13.136Z,3224
2016-05-12T11:14:13.138Z,3100
2016-05-12T11:15:13.141Z,2948
2016-05-12T11:16:13.113Z,2768
2016-05-12T11:17:13.177Z,2652
2016-05-12T11:18:12.977Z,2564
2016-05-12T11:19:12.980Z,2504
2016-05-12T11:20:12.998Z,2400
2016-05-12T11:21:13.141Z,2268
2016-05-12T11:22:13.144Z,2168
2016-05-12T11:23:12.990Z,2124
2016-05-12T11:24:13.181Z,2056
2016-05-12T11:25:13.137Z,2016
2016-05-12T11:26:13.155Z,2044
2016-05-12T11:27:13.173Z,2060
2016-05-12T11:28:13.176Z,2064
2016-05-12T11:29:13.007Z,2056
2016-05-12T11:30:12.870Z,2096
2016-05-12T11:31:12.872Z,2092
2016-05-12T11:32:13.202Z,2140
2016-05-12T11:33:13.018Z,2224
2016-05-12T11:34:13.348Z,2276
2016-05-12T11:35:13.178Z,2288
2016-05-12T11:36:13.214Z,2324
2016-05-12T11:37:13.403Z,2320
2016-05-12T11:38:13.187Z,2272
2016-05-12T11:39:13.064Z,2204
2016-05-12T11:40:13.037Z,2160
2016-05-12T11:41:13.227Z,2116
2016-05-12T11:42:13.182Z,2032
2016-05-12T11:43:13.201Z,2040
2016-05-12T11:44:13.188Z,2084
2016-05-12T11:45:13.206Z,2144
2016-05-12T11:46:12.881Z,2172
2016-05-12T11:47:13.211Z,2180
2016-05-12T11:48:13.261Z,2188
2016-05-12T11:49:13.076Z,2180
2016-05-12T11:50:13.220Z,2216
2016-05-12T11:51:13.222Z,2324
2016-05-12T11:52:13.099Z,2436
2016-05-12T11:53:13.040Z,2484
2016-05-12T11:54:13.090Z,2496
2016-05-12T11:55:13.233Z,2452
2016-05-12T11:56:13.079Z,2424
2016-05-12T11:57:13.082Z,2388
2016-05-12T11:58:13.070Z,2264
2016-05-12T11:59:13.259Z,2156
2016-05-12T12:00:13.246Z,2124
2016-05-12T12:01:13.234Z,2072
2016-05-12T12:02:12.956Z,2004
2016-05-12T12:03:13.240Z,1924
2016-05-12T12:04:13.086Z,1884
2016-05-12T12:05:13.103Z,1888
2016-05-12T12:06:13.091Z,1912
2016-05-12T12:07:13.297Z,1900
2016-05-12T12:08:13.267Z,1920
2016-05-12T12:09:13.287Z,1904
2016-05-12T12:10:13.273Z,1876
2016-05-12T12:11:13.275Z,1864
2016-05-12T12:12:13.278Z,1864
2016-05-12T12:13:13.281Z,1908
2016-05-12T12:14:13.283Z,1956
2016-05-12T12:15:13.333Z,2096
2016-05-12T12:16:13.321Z,2192
2016-05-12T12:17:13.152Z,2296
2016-05-12T12:18:13.124Z,2568
2016-05-12T12:19:13.157Z,2968
2016-05-12T12:20:13.019Z,3528
2016-05-12T12:21:13.287Z,4248
2016-05-12T12:22:13.275Z,4996
2016-05-12T12:23:13.308Z,5312
2016-05-12T12:24:13.343Z,5464
2016-05-12T12:25:13.267Z,5648
2016-05-12T12:26:13.348Z,5664
2016-05-12T12:27:13.335Z,5428
2016-05-12T12:28:13.306Z,5124
2016-05-12T12:29:13.293Z,4828
2016-05-12T12:30:13.295Z,4484
2016-05-12T12:31:13.298Z,4128
2016-05-12T12:32:13.333Z,3904
2016-05-12T12:33:13.320Z,3768
2016-05-12T12:34:13.322Z,3576
2016-05-12T12:35:13.169Z,3448
2016-05-12T12:36:13.359Z,3336
2016-05-12T12:37:13.346Z,3340
2016-05-12T12:38:13.334Z,3432
2016-05-12T12:39:16.336Z,3580
2016-05-12T12:40:13.386Z,3708
2016-05-12T12:41:13.311Z,3880
2016-05-12T12:42:13.016Z,4040
2016-05-12T12:43:13.316Z,4396
2016-05-12T12:44:13.364Z,4984
2016-05-12T12:45:13.211Z,5652
2016-05-12T12:46:13.199Z,6172
2016-05-12T12:47:13.372Z,6872
2016-05-12T12:48:13.360Z,7856
2016-05-12T12:49:13.190Z,8692
2016-05-12T12:50:13.350Z,9268
2016-05-12T12:51:13.352Z,9700
2016-05-12T12:52:13.215Z,10188
2016-05-12T12:53:13.343Z,10672
2016-05-12T12:54:13.220Z,11220
2016-05-12T12:55:13.394Z,11528
2016-05-12T12:56:13.069Z,11608
2016-05-12T12:57:13.385Z,11408
2016-05-12T12:58:13.043Z,10852
2016-05-12T12:59:13.390Z,10272
2016-05-12T13:00:13.205Z,9448
2016-05-12T13:01:13.254Z,8916
2016-05-12T13:02:13.367Z,8520
2016-05-12T13:03:13.087Z,8184
2016-05-12T13:04:13.403Z,7704
2016-05-12T13:05:13.406Z,7392
2016-05-12T13:06:13.408Z,7268
2016-05-12T13:07:13.239Z,7088
2016-05-12T13:08:13.226Z,6968
2016-05-12T13:09:13.260Z,6912
2016-05-12T13:10:13.106Z,6748
2016-05-12T13:11:13.422Z,6744
2016-05-12T13:12:13.253Z,6820
2016-05-12T13:13:13.428Z,7100
2016-05-12T13:14:13.415Z,7488
2016-05-12T13:15:13.416Z,7868
2016-05-12T13:16:13.436Z,8148
2016-05-12T13:17:13.328Z,8068
2016-05-12T13:18:13.378Z,8048
2016-05-12T13:19:13.303Z,7668
2016-05-12T13:20:13.461Z,6924
2016-05-12T13:21:13.308Z,6156
2016-05-12T13:22:13.466Z,5452
2016-05-12T13:23:13.485Z,4940
2016-05-12T13:24:13.472Z,4764
2016-05-12T13:25:13.318Z,4312
2016-05-12T13:26:13.493Z,3784
2016-05-12T13:27:13.355Z,3404
2016-05-12T13:28:13.327Z,3204
2016-05-12T13:29:13.501Z,3100
2016-05-12T13:30:13.348Z,3036
2016-05-12T13:31:13.365Z,2956
2016-05-12T13:32:13.369Z,2832
2016-05-12T13:33:13.512Z,2708
2016-05-12T13:34:13.515Z,2616
2016-05-12T13:35:13.502Z,2508
2016-05-12T13:36:13.192Z,2392
2016-05-12T13:37:13.351Z,2288
2016-05-12T13:38:13.229Z,2188
2016-05-12T13:39:13.528Z,2036
2016-05-12T13:40:13.531Z,1892
2016-05-12T13:41:13.518Z,1788
2016-05-12T13:42:13.380Z,1752